Time;durP1;ratioP1;P1;durP2;ratioP2;P2;SDS_P1;SDS_P2;PMS_P1;PMS_P2;Temp;Humidity;BMP_temperature;BMP_pressure;BME280_temperature;BME280_humidity;BME280_pressure;Samples;Min_cycle;Max_cycle;Signal;HPM_P1;HPM_P2
2024/01/21 00:01:45;;;;;;;9.47;6.67;;;-4.40;99.90;;;-141.84;70.67;18232.97;5086410;28;20748;-62
2024/01/21 00:04:14;;;;;;;11.27;7.10;;;-4.50;99.90;;;-141.84;70.20;18196.41;5054550;28;20199;-61
2024/01/21 00:06:42;;;;;;;9.17;6.60;;;-4.50;99.90;;;-141.84;70.59;18247.22;5050923;28;1121592;-62
2024/01/21 00:09:11;;;;;;;11.83;7.20;;;-4.50;99.90;;;-141.84;70.16;18247.22;5092692;28;20255;-62
2024/01/21 00:11:39;;;;;;;11.00;6.57;;;-4.50;99.90;;;-141.84;70.04;18239.09;5092459;28;20223;-62
2024/01/21 00:14:07;;;;;;;10.63;6.60;;;-4.50;99.90;;;-141.84;71.11;18228.91;5090910;28;20213;-62
2024/01/21 00:16:37;;;;;;;11.93;7.60;;;-4.50;99.90;;;-141.84;70.11;18285.81;5091245;28;20246;-62
2024/01/21 00:19:05;;;;;;;12.00;6.97;;;-4.50;99.90;;;-141.84;70.57;18224.84;5093097;28;20222;-63
2024/01/21 00:21:35;;;;;;;10.27;6.77;;;-4.50;99.90;;;-141.84;71.41;18289.88;5093148;28;20275;-61
2024/01/21 00:24:04;;;;;;;10.37;6.77;;;-4.60;99.90;;;-141.84;72.10;18243.16;5079390;28;20743;-61
2024/01/21 00:26:33;;;;;;;10.53;7.50;;;-4.60;99.90;;;-141.84;72.34;18265.50;5092077;28;20282;-63
2024/01/21 00:29:01;;;;;;;11.10;6.80;;;-4.60;99.90;;;-141.84;72.22;18241.13;5088946;28;20274;-65
2024/01/21 00:31:34;;;;;;;10.23;6.67;;;-4.70;99.90;;;-141.84;71.83;18269.56;5090914;28;20240;-61
2024/01/21 00:34:03;;;;;;;10.87;6.60;;;-4.70;99.90;;;-141.84;69.89;18222.81;5087964;28;20190;-61
2024/01/21 00:36:32;;;;;;;9.00;6.33;;;-4.60;99.90;;;-141.84;70.27;18232.97;5094297;28;20235;-60
2024/01/21 00:39:00;;;;;;;9.23;6.10;;;-4.60;99.90;;;-141.84;70.97;18228.91;5090981;28;20870;-60
2024/01/21 00:41:28;;;;;;;11.63;7.00;;;-4.60;99.90;;;-141.84;70.42;18304.09;5090873;28;20653;-61
2024/01/21 00:43:57;;;;;;;9.37;6.10;;;-4.60;99.90;;;-141.84;70.53;18218.75;5090692;28;20314;-60
2024/01/21 00:46:25;;;;;;;10.40;6.30;;;-4.60;99.90;;;-141.84;69.76;18245.19;5087402;28;20249;-60
2024/01/21 00:48:57;;;;;;;10.37;6.27;;;-4.60;99.90;;;-141.84;68.63;18228.91;5092101;28;20252;-61
2024/01/21 00:51:27;;;;;;;9.00;6.10;;;-4.50;99.90;;;-141.84;68.02;18232.97;5091389;28;20624;-60
2024/01/21 00:53:56;;;;;;;9.33;5.80;;;-4.40;99.90;;;-141.84;67.94;18214.69;5091359;28;20249;-60
2024/01/21 00:56:24;;;;;;;10.00;6.30;;;-4.50;99.90;;;-141.84;67.84;18214.69;5091170;28;20283;-62
2024/01/21 00:58:52;;;;;;;8.17;5.90;;;-4.50;99.90;;;-141.84;67.82;18241.13;5086855;28;20303;-61
2024/01/21 01:01:21;;;;;;;8.07;5.60;;;-4.50;99.90;;;-141.84;67.23;18237.06;5081076;28;20194;-61
2024/01/21 01:03:49;;;;;;;8.90;6.23;;;-4.40;99.90;;;-141.84;67.97;18239.09;5089708;28;20240;-60
2024/01/21 01:06:18;;;;;;;8.50;5.73;;;-4.50;99.90;;;-141.84;67.84;18204.53;5087267;28;20718;-60
2024/01/21 01:08:47;;;;;;;8.20;5.20;;;-4.50;99.90;;;-141.84;66.12;18241.13;5089727;28;20226;-60
2024/01/21 01:11:16;;;;;;;8.63;5.63;;;-4.40;99.90;;;-141.84;65.51;18241.13;5088968;28;20217;-60
2024/01/21 01:13:44;;;;;;;7.13;5.57;;;-4.30;99.90;;;-141.84;66.12;18222.81;5087230;28;20229;-60
2024/01/21 01:16:12;;;;;;;8.57;5.63;;;-4.40;99.90;;;-141.84;66.45;18243.16;5089273;28;20201;-61
2024/01/21 01:18:40;;;;;;;10.27;5.90;;;-4.40;99.90;;;-141.84;66.55;18251.28;5091561;28;20241;-61
2024/01/21 01:21:11;;;;;;;7.37;5.57;;;-4.40;99.90;;;-141.84;65.66;18210.63;5090402;28;20759;-61
2024/01/21 01:23:39;;;;;;;9.80;5.90;;;-4.30;99.90;;;-141.84;66.38;18249.25;5090375;28;20223;-60
2024/01/21 01:26:09;;;;;;;8.57;6.10;;;-4.40;99.90;;;-141.84;67.82;18226.88;5090974;28;20232;-61
2024/01/21 01:28:37;;;;;;;8.63;6.10;;;-4.50;99.90;;;-141.84;67.66;18218.75;5090435;28;20283;-61
2024/01/21 01:31:09;;;;;;;9.83;6.27;;;-4.50;99.90;;;-141.84;68.34;18271.59;5092239;28;20198;-61
2024/01/21 01:33:37;;;;;;;7.57;5.27;;;-4.50;99.90;;;-141.84;67.45;18230.94;5092251;28;20534;-61
2024/01/21 01:36:07;;;;;;;9.13;5.40;;;-4.50;99.90;;;-141.84;67.63;18220.78;5090355;28;20277;-61
2024/01/21 01:38:35;;;;;;;8.17;5.07;;;-4.50;99.90;;;-141.84;68.30;18214.69;5090410;28;20222;-60
2024/01/21 01:41:03;;;;;;;9.00;5.53;;;-4.50;99.90;;;-141.84;66.73;18228.91;5089612;28;20367;-61
2024/01/21 01:43:33;;;;;;;6.90;5.43;;;-4.40;99.90;;;-141.84;67.46;18247.22;5090756;28;20234;-62
2024/01/21 01:46:01;;;;;;;9.27;5.87;;;-4.40;99.90;;;-141.84;68.18;18224.84;5090823;28;20636;-60
2024/01/21 01:48:31;;;;;;;10.20;6.33;;;-4.40;99.90;;;-141.84;69.20;18208.59;5091065;28;20329;-60
2024/01/21 01:51:03;;;;;;;9.93;6.00;;;-4.50;99.90;;;-141.84;69.90;18257.38;5090538;28;20221;-60
2024/01/21 01:53:34;;;;;;;9.07;6.23;;;-4.60;99.90;;;-141.84;69.35;18241.13;5090565;28;20225;-60
2024/01/21 01:56:03;;;;;;;8.57;5.90;;;-4.60;99.90;;;-141.84;68.47;18253.31;5090339;28;20249;-60
2024/01/21 01:58:36;;;;;;;9.43;5.87;;;-4.50;99.90;;;-141.84;68.97;18224.84;5091575;28;20291;-61
2024/01/21 02:01:05;;;;;;;9.07;5.90;;;-4.50;99.90;;;-141.84;67.85;18216.72;5091367;28;20191;-61
2024/01/21 02:03:34;;;;;;;10.37;6.27;;;-4.40;99.90;;;-141.84;68.11;18226.88;5090121;28;20226;-61
2024/01/21 02:06:02;;;;;;;10.37;6.17;;;-4.40;99.90;;;-141.84;68.67;18255.34;5089709;28;20275;-61
2024/01/21 02:08:31;;;;;;;9.53;6.10;;;-4.40;99.90;;;-141.84;68.73;18226.88;5086880;28;20308;-61
2024/01/21 02:10:59;;;;;;;8.30;6.30;;;-4.40;99.90;;;-141.84;68.43;18243.16;5090451;28;20234;-61
2024/01/21 02:13:29;;;;;;;10.37;6.70;;;-4.30;99.90;;;-141.84;67.88;18220.78;5092151;28;20229;-61
2024/01/21 02:16:00;;;;;;;13.60;6.77;;;-4.30;99.90;;;-141.84;67.34;18194.38;5090950;28;20257;-61
2024/01/21 02:18:29;;;;;;;11.10;6.80;;;-4.20;99.90;;;-141.84;67.66;18265.50;5091397;28;20228;-61
2024/01/21 02:20:57;;;;;;;9.90;6.53;;;-4.20;99.90;;;-141.84;66.40;18239.09;5082919;28;20288;-61
2024/01/21 02:23:28;;;;;;;10.57;6.53;;;-4.10;99.90;;;-141.84;67.99;18235.00;5089376;28;20253;-61
2024/01/21 02:25:57;;;;;;;9.13;6.17;;;-4.10;99.90;;;-141.84;68.71;18249.25;5039644;28;20231;-61
2024/01/21 02:28:25;;;;;;;9.80;6.80;;;-4.20;99.90;;;-141.84;68.88;18253.31;5092555;28;20195;-61
2024/01/21 02:30:53;;;;;;;11.83;7.07;;;-4.20;99.90;;;-141.84;68.33;18220.78;5092825;28;20244;-61
2024/01/21 02:33:22;;;;;;;10.63;6.47;;;-4.20;99.90;;;-141.84;67.94;18206.56;5089247;28;20222;-61
2024/01/21 02:35:50;;;;;;;10.57;7.00;;;-4.10;99.90;;;-141.84;67.72;18224.84;5091138;28;20223;-61
2024/01/21 02:38:18;;;;;;;9.53;6.50;;;-4.10;99.90;;;-141.84;68.10;18200.47;5089303;28;20642;-61
2024/01/21 02:40:48;;;;;;;12.10;6.73;;;-4.10;99.90;;;-141.84;68.62;18232.97;5089404;28;20253;-61
2024/01/21 02:43:17;;;;;;;10.20;6.63;;;-4.10;99.90;;;-141.84;67.28;18232.97;5046466;28;20237;-61
2024/01/21 02:45:45;;;;;;;10.43;6.43;;;-4.00;99.90;;;-141.84;67.21;18222.81;5089896;28;20233;-60
2024/01/21 02:48:13;;;;;;;11.23;6.90;;;-4.00;99.90;;;-141.84;68.47;18257.38;5091421;28;20225;-61
2024/01/21 02:50:42;;;;;;;9.03;6.50;;;-4.10;99.90;;;-141.84;68.41;18249.25;5095442;28;20222;-62
2024/01/21 02:53:11;;;;;;;10.57;6.83;;;-4.00;99.90;;;-141.84;69.71;18220.78;5094942;28;20574;-62
2024/01/21 02:55:39;;;;;;;10.20;6.80;;;-4.10;99.90;;;-141.84;70.42;18249.25;5085683;28;20253;-62
2024/01/21 02:58:10;;;;;;;10.53;7.10;;;-4.20;99.90;;;-141.84;69.43;18259.41;5095003;28;20203;-62
2024/01/21 03:00:38;;;;;;;11.23;6.80;;;-4.10;99.90;;;-141.84;70.72;18261.44;5095156;28;20272;-62
2024/01/21 03:03:09;;;;;;;11.53;6.77;;;-4.20;99.90;;;-141.84;69.04;18226.88;5093792;28;20242;-62
2024/01/21 03:05:38;;;;;;;9.90;6.43;;;-4.10;99.90;;;-141.84;68.13;18216.72;5093773;28;20259;-62
2024/01/21 03:08:07;;;;;;;10.23;6.90;;;-4.00;99.90;;;-141.84;68.64;18241.13;5092893;28;20255;-62
2024/01/21 03:10:35;;;;;;;8.83;6.53;;;-4.00;99.90;;;-141.84;69.97;18275.66;5094039;28;20234;-62
2024/01/21 03:13:04;;;;;;;11.53;7.23;;;-4.00;99.90;;;-141.84;71.53;18245.19;5093207;28;20290;-62
2024/01/21 03:15:33;;;;;;;10.03;7.00;;;-4.00;99.90;;;-141.84;70.06;18245.19;5093741;28;20227;-63
2024/01/21 03:18:02;;;;;;;11.43;7.40;;;-4.10;99.90;;;-141.84;68.05;18198.44;5093629;28;20218;-62
2024/01/21 03:20:30;;;;;;;10.53;7.20;;;-3.90;99.90;;;-141.84;66.51;18222.81;5092632;28;20226;-63
2024/01/21 03:22:58;;;;;;;9.20;6.90;;;-3.80;99.90;;;-141.84;68.02;18228.91;5093181;28;20283;-63
2024/01/21 03:25:26;;;;;;;11.13;6.57;;;-3.80;99.90;;;-141.84;69.78;18232.97;5093761;28;20298;-63
2024/01/21 03:27:54;;;;;;;9.97;7.10;;;-3.90;99.90;;;-141.84;69.13;18249.25;5093557;28;20202;-63
2024/01/21 03:30:23;;;;;;;9.87;6.50;;;-3.80;99.90;;;-141.84;68.69;18257.38;5093016;28;20222;-63
2024/01/21 03:32:52;;;;;;;12.80;7.43;;;-3.70;99.90;;;-141.84;69.24;18257.38;5093393;28;20250;-63
2024/01/21 03:35:21;;;;;;;10.27;6.80;;;-3.70;99.90;;;-141.84;67.19;18235.00;5092266;28;20218;-62
2024/01/21 03:37:49;;;;;;;12.00;7.17;;;-3.60;99.90;;;-141.84;65.86;18243.16;5093501;28;20218;-62
2024/01/21 03:40:18;;;;;;;10.10;6.50;;;-3.50;99.90;;;-141.84;65.79;18228.91;5093096;28;20269;-62
2024/01/21 03:42:47;;;;;;;9.43;6.67;;;-3.40;99.90;;;-141.84;64.96;18228.91;5092214;28;20731;-62
2024/01/21 03:45:16;;;;;;;10.20;7.27;;;-3.30;99.90;;;-141.84;66.37;18228.91;5093333;28;20314;-62
2024/01/21 03:47:44;;;;;;;11.13;6.33;;;-3.30;99.90;;;-141.84;66.72;18202.50;5092969;28;20330;-63
2024/01/21 03:50:18;;;;;;;8.90;6.23;;;-3.30;99.90;;;-141.84;67.26;18245.19;5092117;28;20293;-62
2024/01/21 03:52:47;;;;;;;8.67;6.20;;;-3.30;99.90;;;-141.84;67.83;18232.97;5092395;28;20296;-62
2024/01/21 03:55:16;;;;;;;7.80;6.00;;;-3.40;99.90;;;-141.84;69.02;18253.31;5093158;28;20204;-61
2024/01/21 03:57:45;;;;;;;10.23;6.53;;;-3.50;99.90;;;-141.84;69.50;18232.97;5093264;28;20249;-61
2024/01/21 04:00:15;;;;;;;8.43;6.67;;;-3.60;99.90;;;-141.84;68.99;18214.69;5092181;28;20219;-61
2024/01/21 04:02:43;;;;;;;8.60;6.30;;;-3.60;99.90;;;-141.84;67.88;18232.97;5091819;28;20231;-60
2024/01/21 04:05:13;;;;;;;9.67;6.43;;;-3.50;99.90;;;-141.84;67.82;18257.38;5091942;28;20296;-61
2024/01/21 04:07:41;;;;;;;8.87;6.20;;;-3.50;99.90;;;-141.84;66.89;18259.41;5092307;28;20234;-60
2024/01/21 04:10:10;;;;;;;8.93;5.93;;;-3.40;99.90;;;-141.84;65.43;18218.75;5092904;28;20227;-60
2024/01/21 04:12:38;;;;;;;8.57;5.90;;;-3.20;99.90;;;-141.84;65.81;18230.94;5093202;28;20211;-61
2024/01/21 04:15:12;;;;;;;9.73;6.17;;;-3.20;99.90;;;-141.84;64.94;18245.19;5092375;28;20699;-61
2024/01/21 04:17:41;;;;;;;6.80;5.70;;;-3.20;99.90;;;-141.84;64.34;18220.78;5092283;28;20227;-61
2024/01/21 04:20:15;;;;;;;9.53;5.70;;;-3.10;99.90;;;-141.84;65.60;18249.25;5092466;28;20223;-59
2024/01/21 04:22:43;;;;;;;8.13;5.70;;;-3.20;99.90;;;-141.84;65.98;18261.44;5093209;28;20264;-61
2024/01/21 04:25:11;;;;;;;9.47;5.97;;;-3.30;99.90;;;-141.84;65.57;18265.50;5093404;28;20276;-62
2024/01/21 04:27:40;;;;;;;9.37;5.63;;;-3.30;99.90;;;-141.84;65.99;18257.38;5092705;28;20207;-60
2024/01/21 04:30:09;;;;;;;8.83;5.83;;;-3.30;99.90;;;-141.84;67.52;18263.47;5093561;28;20222;-61
2024/01/21 04:32:38;;;;;;;7.83;5.47;;;-3.40;99.90;;;-141.84;68.23;18253.31;5092058;28;20730;-63
2024/01/21 04:35:08;;;;;;;8.00;5.40;;;-3.40;99.90;;;-141.84;67.15;18228.91;5091744;28;20708;-61
2024/01/21 04:37:38;;;;;;;8.33;5.47;;;-3.40;99.90;;;-141.84;66.44;18255.34;5092339;28;20663;-60
2024/01/21 04:40:11;;;;;;;10.10;5.77;;;-3.40;99.90;;;-141.84;67.63;18232.97;5091930;28;20254;-60
2024/01/21 04:42:39;;;;;;;6.93;5.30;;;-3.40;99.90;;;-141.84;65.41;18204.53;5091911;28;20219;-61
2024/01/21 04:45:09;;;;;;;9.93;5.63;;;-3.30;99.90;;;-141.84;64.53;18265.50;5091204;28;20666;-61
2024/01/21 04:47:39;;;;;;;8.43;5.53;;;-3.20;99.90;;;-141.84;64.96;18228.91;5090781;28;20593;-61
2024/01/21 04:50:09;;;;;;;8.10;5.67;;;-3.10;99.90;;;-141.84;62.60;18255.34;5091783;28;20227;-60
2024/01/21 04:52:38;;;;;;;7.63;5.27;;;-2.90;99.90;;;-141.84;63.26;18251.28;5091533;28;20306;-60
2024/01/21 04:55:09;;;;;;;9.63;6.37;;;-2.90;99.90;;;-141.84;63.01;18202.50;5092593;28;20330;-60
2024/01/21 04:57:37;;;;;;;7.63;5.17;;;-2.80;99.90;;;-141.84;64.15;18237.06;5086374;28;20667;-61
2024/01/21 05:00:08;;;;;;;8.73;5.40;;;-2.90;99.90;;;-141.84;63.48;18251.28;5091195;28;20216;-60
2024/01/21 05:02:36;;;;;;;6.87;4.90;;;-2.90;99.90;;;-141.84;64.25;18237.06;5029660;28;20233;-60
2024/01/21 05:05:05;;;;;;;8.93;4.90;;;-2.90;99.90;;;-141.84;63.89;18275.66;5091492;28;20238;-60
2024/01/21 05:07:37;;;;;;;7.57;5.13;;;-2.90;99.90;;;-141.84;62.93;18245.19;5038170;28;20227;-61
2024/01/21 05:10:07;;;;;;;8.27;5.40;;;-2.90;99.90;;;-141.84;62.23;18228.91;5092118;28;20245;-61
2024/01/21 05:12:35;;;;;;;8.97;5.30;;;-2.80;99.90;;;-141.84;62.94;18255.34;5090361;28;20228;-61
2024/01/21 05:15:04;;;;;;;8.10;5.43;;;-2.80;99.90;;;-141.84;63.55;18263.47;5090672;28;20894;-60
2024/01/21 05:17:33;;;;;;;7.93;5.70;;;-2.80;99.90;;;-141.84;63.64;18241.13;5091307;28;20231;-60
2024/01/21 05:20:03;;;;;;;8.40;5.17;;;-2.90;99.90;;;-141.84;62.94;18253.31;5091750;28;20215;-60
2024/01/21 05:22:31;;;;;;;8.07;6.10;;;-2.80;99.90;;;-141.84;64.32;18245.19;5090962;28;20630;-61
2024/01/21 05:25:00;;;;;;;8.47;5.60;;;-2.90;99.90;;;-141.84;64.83;18235.00;5083522;28;20308;-59
2024/01/21 05:27:29;;;;;;;8.10;5.97;;;-3.00;99.90;;;-141.84;64.41;18226.88;5091561;28;20231;-60
2024/01/21 05:29:57;;;;;;;8.20;6.00;;;-3.10;99.90;;;-141.84;65.30;18247.22;5089775;28;20227;-60
2024/01/21 05:32:25;;;;;;;6.63;5.27;;;-3.20;99.90;;;-141.84;65.91;18265.50;5088747;28;20321;-61
2024/01/21 05:34:54;;;;;;;7.20;5.80;;;-3.20;99.90;;;-141.84;66.49;18259.41;5054776;28;20219;-61
2024/01/21 05:37:22;;;;;;;7.90;6.23;;;-3.30;99.90;;;-141.84;64.95;18263.47;5091229;28;20195;-60
2024/01/21 05:39:51;;;;;;;9.20;6.30;;;-3.20;99.90;;;-141.84;65.00;18239.09;5094969;28;20844;-61
2024/01/21 05:42:20;;;;;;;9.20;5.80;;;-3.20;99.90;;;-141.84;66.12;18291.91;5095206;28;20269;-61
2024/01/21 05:44:48;;;;;;;10.10;6.03;;;-3.30;99.90;;;-141.84;65.81;18259.41;5089621;28;20243;-60
2024/01/21 05:47:17;;;;;;;7.07;5.27;;;-3.30;99.90;;;-141.84;66.47;18235.00;5091805;28;20247;-61
2024/01/21 05:49:45;;;;;;;7.63;5.70;;;-3.30;99.90;;;-141.84;66.78;18255.34;5091880;28;20310;-61
2024/01/21 05:52:14;;;;;;;6.80;5.67;;;-3.30;99.90;;;-141.84;68.19;18265.50;5053722;28;20196;-61
2024/01/21 05:54:42;;;;;;;9.67;6.30;;;-3.30;99.90;;;-141.84;67.63;18253.31;5092991;28;20295;-61
2024/01/21 05:57:10;;;;;;;9.90;6.37;;;-3.30;99.90;;;-141.84;67.78;18249.25;5090695;28;20219;-60
2024/01/21 05:59:41;;;;;;;8.83;6.03;;;-3.30;99.90;;;-141.84;67.20;18232.97;5081695;28;20222;-61
2024/01/21 06:02:10;;;;;;;8.53;6.30;;;-3.30;99.90;;;-141.84;66.51;18228.91;5085059;28;20224;-60
2024/01/21 06:04:40;;;;;;;10.83;6.73;;;-3.20;99.90;;;-141.84;63.81;18263.47;5090921;28;20211;-60
2024/01/21 06:07:08;;;;;;;8.03;5.83;;;-3.00;99.90;;;-141.84;64.28;18226.88;5091172;28;20204;-60
2024/01/21 06:09:37;;;;;;;8.83;6.10;;;-3.00;99.90;;;-141.84;64.41;18277.69;5090580;28;20207;-61
2024/01/21 06:12:05;;;;;;;9.37;5.73;;;-2.90;99.90;;;-141.84;63.33;18237.06;5089681;28;20220;-61
2024/01/21 06:14:34;;;;;;;8.00;5.87;;;-2.70;99.90;;;-141.84;62.16;18253.31;5090603;28;20757;-60
2024/01/21 06:17:04;;;;;;;8.60;6.07;;;-2.60;99.90;;;-141.84;61.27;18257.38;5090518;28;20308;-60
2024/01/21 06:19:32;;;;;;;8.00;6.17;;;-2.40;99.90;;;-141.84;61.65;18257.38;5090612;28;20223;-61
2024/01/21 06:22:00;;;;;;;10.23;6.33;;;-2.40;99.90;;;-141.84;61.68;18251.28;5092629;28;20188;-60
2024/01/21 06:24:29;;;;;;;7.30;5.20;;;-2.40;99.90;;;-141.84;60.89;18247.22;5094370;28;20226;-61
2024/01/21 06:26:57;;;;;;;8.47;5.73;;;-2.30;99.90;;;-141.84;61.64;18261.44;5093664;28;20254;-60
2024/01/21 06:29:25;;;;;;;8.73;5.57;;;-2.30;99.90;;;-141.84;60.71;18263.47;5094410;28;20220;-60
2024/01/21 06:31:54;;;;;;;7.87;5.37;;;-2.30;99.90;;;-141.84;61.13;18251.28;5093866;28;20222;-60
2024/01/21 06:34:24;;;;;;;6.67;5.30;;;-2.30;99.90;;;-141.84;60.84;18265.50;5086593;28;20227;-60
2024/01/21 06:36:53;;;;;;;6.80;5.07;;;-2.40;99.90;;;-141.84;61.12;18285.81;5095423;28;20715;-61
2024/01/21 06:39:22;;;;;;;7.57;5.37;;;-2.40;99.90;;;-141.84;59.97;18267.53;5094622;28;20230;-60
2024/01/21 06:41:53;;;;;;;5.87;4.83;;;-2.30;99.90;;;-141.84;59.46;18251.28;5093915;28;20215;-62
2024/01/21 06:44:22;;;;;;;7.40;5.10;;;-2.30;99.90;;;-141.84;59.67;18251.28;5093694;28;20219;-61
2024/01/21 06:46:50;;;;;;;7.20;4.50;;;-2.40;99.90;;;-141.84;59.27;18295.97;5094011;28;20253;-62
2024/01/21 06:49:18;;;;;;;7.37;5.20;;;-2.30;99.90;;;-141.84;58.01;18273.63;5094064;28;20282;-61
2024/01/21 06:51:54;;;;;;;7.67;5.73;;;-2.20;99.90;;;-141.84;57.90;18263.47;5094618;28;20252;-61
2024/01/21 06:54:23;;;;;;;7.30;5.13;;;-2.20;99.90;;;-141.84;57.81;18281.75;5051371;28;20681;-60
2024/01/21 06:56:51;;;;;;;7.10;5.57;;;-2.20;99.90;;;-141.84;58.18;18277.69;5092928;28;20716;-62
2024/01/21 06:59:19;;;;;;;7.77;5.07;;;-2.30;99.90;;;-141.84;57.96;18269.56;5092940;28;20220;-61
2024/01/21 07:01:49;;;;;;;6.63;4.70;;;-2.20;99.90;;;-141.84;58.06;18267.53;5094357;28;20353;-62
2024/01/21 07:04:20;;;;;;;7.47;4.47;;;-2.20;99.90;;;-141.84;57.13;18273.63;5038219;28;20265;-60
2024/01/21 07:06:53;;;;;;;6.30;4.57;;;-2.10;99.90;;;-141.84;56.58;18283.78;5093029;28;20235;-61
2024/01/21 07:09:22;;;;;;;6.83;4.43;;;-2.00;99.90;;;-141.84;56.14;18253.31;5092929;28;20927;-61
2024/01/21 07:11:51;;;;;;;5.77;4.50;;;-1.90;99.90;;;-141.84;56.45;18289.88;5093386;28;20222;-60
2024/01/21 07:14:19;;;;;;;6.50;4.80;;;-1.90;99.90;;;-141.84;55.67;18291.91;5085118;28;20259;-60
2024/01/21 07:16:51;;;;;;;5.20;4.47;;;-1.90;99.90;;;-141.84;54.44;18310.19;5092389;28;20220;-60
2024/01/21 07:19:20;;;;;;;6.47;4.43;;;-1.70;99.90;;;-141.84;53.84;18330.50;5056781;28;20658;-62
2024/01/21 07:21:50;;;;;;;6.80;4.60;;;-1.60;99.90;;;-141.84;54.55;18312.22;5093843;28;20790;-59
2024/01/21 07:24:18;;;;;;;5.27;3.77;;;-1.60;99.90;;;-141.84;52.27;18293.94;5083925;28;20212;-61
2024/01/21 07:26:46;;;;;;;6.73;4.30;;;-1.50;99.90;;;-141.84;52.60;18314.25;5094164;28;20251;-60
2024/01/21 07:29:15;;;;;;;7.70;4.27;;;-1.40;99.90;;;-141.84;52.23;18338.63;5090821;28;20303;-61
2024/01/21 07:31:43;;;;;;;4.67;3.67;;;-1.30;99.90;;;-141.84;51.92;18312.22;5089341;28;20231;-60
2024/01/21 07:34:12;;;;;;;5.20;3.87;;;-1.30;99.90;;;-141.84;50.99;18318.31;5092708;28;20837;-61
2024/01/21 07:36:41;;;;;;;5.43;3.60;;;-1.20;99.90;;;-141.84;50.02;18336.59;5093192;28;20253;-60
2024/01/21 07:39:14;;;;;;;5.93;4.20;;;-1.00;99.90;;;-141.84;50.80;18338.63;5092520;28;20659;-61
2024/01/21 07:41:42;;;;;;;5.53;4.17;;;-1.10;99.90;;;-141.84;50.61;18354.88;5085370;28;20218;-60
2024/01/21 07:44:10;;;;;;;5.13;4.20;;;-1.00;99.90;;;-141.84;51.14;18310.19;5094650;28;20221;-63
2024/01/21 07:46:38;;;;;;;4.97;3.80;;;-1.10;99.90;;;-141.84;51.12;18320.34;5092687;28;20231;-63
2024/01/21 07:49:07;;;;;;;7.93;4.73;;;-1.00;99.90;;;-141.84;51.11;18346.75;5093605;28;20254;-63
2024/01/21 07:51:39;;;;;;;5.80;4.20;;;-1.00;99.90;;;-141.84;50.28;18334.56;5050962;28;20216;-63
2024/01/21 07:54:07;;;;;;;5.97;3.70;;;-1.00;99.90;;;-141.84;49.91;18348.78;5091885;28;20225;-64
2024/01/21 07:56:37;;;;;;;7.53;4.30;;;-0.90;99.90;;;-141.84;49.55;18338.63;5091671;28;20276;-63
2024/01/21 07:59:05;;;;;;;6.03;3.97;;;-0.80;99.90;;;-141.84;50.34;18367.06;5091797;28;20250;-63
2024/01/21 08:01:33;;;;;;;5.20;3.93;;;-0.70;99.90;;;-141.84;49.60;18338.63;5092056;28;20866;-64
2024/01/21 08:04:02;;;;;;;4.83;3.93;;;-0.70;99.90;;;-141.84;49.71;18340.66;5092067;28;20594;-63
2024/01/21 08:06:31;;;;;;;4.53;3.20;;;-0.60;99.90;;;-141.84;49.98;18328.47;5084558;28;20223;-63
2024/01/21 08:08:59;;;;;;;4.90;3.83;;;-0.60;99.90;;;-141.84;48.62;18365.03;5086140;28;20224;-63
2024/01/21 08:11:27;;;;;;;5.37;3.53;;;-0.40;99.90;;;-141.84;49.26;18363.00;5080067;28;20223;-63
2024/01/21 08:13:57;;;;;;;5.10;3.73;;;-0.40;99.90;;;-141.84;49.48;18350.81;5081617;28;20354;-63
2024/01/21 08:16:25;;;;;;;5.60;4.17;;;-0.40;99.90;;;-141.84;49.10;18369.09;5080649;28;20185;-63
2024/01/21 08:18:53;;;;;;;6.00;4.07;;;-0.40;99.90;;;-141.84;48.83;18379.25;5081551;28;20257;-63
2024/01/21 08:21:22;;;;;;;5.53;4.40;;;-0.40;99.90;;;-141.84;49.79;18369.09;5078218;28;20227;-64
2024/01/21 08:23:50;;;;;;;5.30;3.67;;;-0.40;99.90;;;-141.84;49.13;18358.94;5073621;28;20235;-63
2024/01/21 08:26:18;;;;;;;4.93;3.80;;;-0.40;99.90;;;-141.84;48.59;18371.13;5079667;28;20258;-63
2024/01/21 08:28:46;;;;;;;5.83;4.00;;;-0.30;99.90;;;-141.84;48.56;18365.03;5083620;28;20298;-64
2024/01/21 08:31:16;;;;;;;7.50;4.50;;;-0.20;99.90;;;-141.84;48.04;18387.38;5078082;28;20213;-63
2024/01/21 08:33:44;;;;;;;5.27;3.80;;;-0.10;99.90;;;-141.84;48.35;18387.38;5080584;28;20676;-64
2024/01/21 08:36:13;;;;;;;5.63;3.87;;;-0.10;99.90;;;-141.84;49.37;18352.84;5080483;28;20219;-62
2024/01/21 08:38:41;;;;;;;5.37;3.90;;;-0.20;99.90;;;-141.84;48.51;18389.41;5077965;28;20273;-63
2024/01/21 08:41:09;;;;;;;5.57;3.73;;;-0.10;99.90;;;-141.84;47.79;18395.50;5079220;28;20228;-63
2024/01/21 08:43:38;;;;;;;5.13;3.83;;;0.00;99.90;;;-141.84;48.38;18363.00;5081372;28;20692;-63
2024/01/21 08:46:07;;;;;;;5.73;4.17;;;0.10;99.90;;;-141.84;47.63;18413.78;5082942;28;20226;-63
2024/01/21 08:48:38;;;;;;;4.83;3.53;;;0.10;99.90;;;-141.84;47.21;18348.78;5054295;28;20214;-63
2024/01/21 08:51:07;;;;;;;4.47;3.60;;;0.20;99.90;;;-141.84;47.31;18401.59;5060912;28;20245;-62
2024/01/21 08:53:35;;;;;;;4.77;3.97;;;0.30;99.90;;;-141.84;47.43;18423.94;5042664;28;20224;-63
2024/01/21 08:56:04;;;;;;;4.43;3.60;;;0.40;99.90;;;-141.84;47.07;18393.47;5081178;28;20268;-63
2024/01/21 08:58:33;;;;;;;4.47;3.67;;;0.50;99.90;;;-141.84;46.01;18428.03;5078018;28;20256;-64
2024/01/21 09:01:01;;;;;;;5.60;3.90;;;0.60;99.90;;;-141.84;45.80;18428.03;5073919;28;20200;-63
2024/01/21 09:03:30;;;;;;;5.67;3.93;;;0.70;99.90;;;-141.84;45.17;18409.72;5076034;28;20220;-64
2024/01/21 09:06:00;;;;;;;4.70;3.93;;;0.90;99.90;;;-141.84;45.62;18421.91;5079641;28;20244;-63
2024/01/21 09:08:29;;;;;;;4.83;3.70;;;0.90;99.90;;;-141.84;45.38;18446.31;5082491;28;20966;-63
2024/01/21 09:10:57;;;;;;;6.73;3.57;;;1.00;99.90;;;-141.84;45.15;18460.53;5087678;28;20242;-63
2024/01/21 09:13:25;;;;;;;4.93;3.60;;;1.00;99.90;;;-141.84;46.12;18415.81;5084001;28;20402;-64
2024/01/21 09:15:54;;;;;;;4.33;3.10;;;1.10;99.90;;;-141.84;45.38;18440.22;5086201;28;20192;-62
2024/01/21 09:18:22;;;;;;;5.17;3.40;;;0.90;99.90;;;-141.84;45.27;18440.22;5088095;28;20946;-63
2024/01/21 09:20:51;;;;;;;3.90;3.50;;;1.00;99.90;;;-141.84;44.27;18466.63;5087604;28;20708;-62
2024/01/21 09:23:21;;;;;;;4.00;3.13;;;1.10;99.90;;;-141.84;44.39;18438.19;5085107;28;20736;-63
2024/01/21 09:25:49;;;;;;;6.57;4.00;;;1.10;99.90;;;-141.84;44.87;18448.34;5087482;28;20220;-62
2024/01/21 09:28:18;;;;;;;6.33;4.03;;;1.20;99.90;;;-141.84;44.28;18423.94;5086293;28;20217;-63
2024/01/21 09:30:46;;;;;;;4.83;3.40;;;1.30;99.90;;;-141.84;43.97;18464.59;5090246;28;20200;-63
2024/01/21 09:33:17;;;;;;;5.03;3.33;;;1.30;99.90;;;-141.84;43.21;18486.94;5084788;28;20311;-63
2024/01/21 09:35:45;;;;;;;4.83;3.17;;;1.60;99.90;;;-141.84;42.78;18501.16;5082934;28;20220;-63
2024/01/21 09:38:18;;;;;;;5.00;3.20;;;1.50;99.90;;;-141.84;42.83;18503.19;5087798;28;20225;-63
2024/01/21 09:40:58;;;;;;;4.70;3.20;;;1.70;99.90;;;-141.84;42.67;18464.59;5082925;28;20231;-63
2024/01/21 09:43:30;;;;;;;4.90;2.90;;;1.60;99.90;;;-141.84;42.81;18511.31;5084613;28;20184;-63
2024/01/21 09:46:00;;;;;;;3.43;2.80;;;1.70;99.90;;;-141.84;42.20;18519.44;5080950;28;20196;-62
2024/01/21 09:48:30;;;;;;;5.77;4.33;;;1.70;99.90;;;-141.84;42.04;18484.91;5080946;28;20638;-63
2024/01/21 09:51:00;;;;;;;4.20;3.27;;;1.70;99.90;;;-141.84;42.48;18495.06;5087027;28;20249;-63
2024/01/21 09:53:28;;;;;;;4.03;3.00;;;1.70;99.90;;;-141.84;42.62;18503.19;5086093;28;20269;-63
2024/01/21 09:56:07;;;;;;;5.77;3.53;;;1.70;99.90;;;-141.84;42.63;18513.34;5090974;28;20588;-64
2024/01/21 09:58:46;;;;;;;3.80;2.43;;;1.90;99.90;;;-141.84;42.48;18509.28;5090882;28;20273;-63
2024/01/21 10:01:17;;;;;;;3.17;2.70;;;1.90;99.90;;;-141.84;42.01;18519.44;5094620;28;20200;-62
2024/01/21 10:03:45;;;;;;;4.57;2.77;;;1.80;99.90;;;-141.84;42.27;18529.59;5113570;28;20187;-62
2024/01/21 10:06:14;;;;;;;3.37;2.50;;;1.80;99.90;;;-141.84;41.65;18478.81;5054938;28;20238;-63
2024/01/21 10:08:43;;;;;;;4.57;3.13;;;1.90;99.90;;;-141.84;42.28;18501.16;5096999;28;20255;-63
2024/01/21 10:11:15;;;;;;;4.27;3.03;;;1.90;99.90;;;-141.84;41.66;18497.09;5098465;28;20215;-62
2024/01/21 10:13:46;;;;;;;8.17;4.50;;;2.00;99.90;;;-141.84;41.66;18531.63;5098269;28;20235;-62